sensor_id;sensor_type;location;lat;lon;timestamp;P1;durP1;ratioP1;P2;durP2;ratioP2
22449;SDS011;11392;57.390;-2.468;2022-09-09T00:12:18;7.55;;;3.58;;
22449;SDS011;11392;57.390;-2.468;2022-09-09T00:17:53;14.05;;;5.80;;
22449;SDS011;11392;57.390;-2.468;2022-09-09T00:20:48;12.90;;;3.90;;
22449;SDS011;11392;57.390;-2.468;2022-09-09T00:23:24;11.25;;;3.60;;
22449;SDS011;11392;57.390;-2.468;2022-09-09T00:28:52;13.90;;;4.80;;
22449;SDS011;11392;57.390;-2.468;2022-09-09T00:31:25;16.40;;;4.57;;
22449;SDS011;11392;57.390;-2.468;2022-09-09T00:33:57;16.92;;;4.75;;
22449;SDS011;11392;57.390;-2.468;2022-09-09T00:36:29;17.30;;;4.78;;
22449;SDS011;11392;57.390;-2.468;2022-09-09T00:39:01;16.20;;;4.87;;
22449;SDS011;11392;57.390;-2.468;2022-09-09T00:44:13;22.08;;;5.82;;
22449;SDS011;11392;57.390;-2.468;2022-09-09T00:57:52;15.23;;;5.47;;
22449;SDS011;11392;57.390;-2.468;2022-09-09T01:05:39;19.83;;;4.12;;
22449;SDS011;11392;57.390;-2.468;2022-09-09T01:10:57;13.38;;;4.62;;
22449;SDS011;11392;57.390;-2.468;2022-09-09T01:13:34;8.30;;;3.35;;
22449;SDS011;11392;57.390;-2.468;2022-09-09T01:16:04;13.18;;;4.00;;
22449;SDS011;11392;57.390;-2.468;2022-09-09T01:18:39;15.75;;;4.30;;
22449;SDS011;11392;57.390;-2.468;2022-09-09T01:26:42;16.08;;;4.30;;
22449;SDS011;11392;57.390;-2.468;2022-09-09T01:29:15;12.90;;;5.05;;
22449;SDS011;11392;57.390;-2.468;2022-09-09T01:34:49;14.45;;;4.37;;
22449;SDS011;11392;57.390;-2.468;2022-09-09T01:37:18;12.90;;;4.60;;
22449;SDS011;11392;57.390;-2.468;2022-09-09T01:39:51;14.55;;;4.43;;
22449;SDS011;11392;57.390;-2.468;2022-09-09T01:42:18;10.55;;;3.97;;
22449;SDS011;11392;57.390;-2.468;2022-09-09T01:44:46;20.50;;;5.15;;
22449;SDS011;11392;57.390;-2.468;2022-09-09T01:47:16;15.15;;;4.22;;
22449;SDS011;11392;57.390;-2.468;2022-09-09T01:49:44;11.98;;;4.55;;
22449;SDS011;11392;57.390;-2.468;2022-09-09T01:52:11;13.38;;;4.90;;
22449;SDS011;11392;57.390;-2.468;2022-09-09T01:54:39;14.87;;;4.18;;
22449;SDS011;11392;57.390;-2.468;2022-09-09T01:57:10;12.52;;;5.00;;
22449;SDS011;11392;57.390;-2.468;2022-09-09T02:02:39;12.82;;;4.03;;
22449;SDS011;11392;57.390;-2.468;2022-09-09T02:05:12;9.57;;;3.90;;
22449;SDS011;11392;57.390;-2.468;2022-09-09T02:08:10;13.98;;;3.50;;
22449;SDS011;11392;57.390;-2.468;2022-09-09T02:10:50;7.22;;;3.28;;
22449;SDS011;11392;57.390;-2.468;2022-09-09T02:13:28;12.25;;;3.80;;
22449;SDS011;11392;57.390;-2.468;2022-09-09T02:15:58;6.47;;;2.75;;
22449;SDS011;11392;57.390;-2.468;2022-09-09T02:18:37;9.70;;;3.30;;
22449;SDS011;11392;57.390;-2.468;2022-09-09T02:21:07;9.75;;;2.70;;
22449;SDS011;11392;57.390;-2.468;2022-09-09T02:23:38;14.20;;;4.87;;
22449;SDS011;11392;57.390;-2.468;2022-09-09T02:26:09;13.30;;;3.30;;
22449;SDS011;11392;57.390;-2.468;2022-09-09T02:28:39;10.38;;;2.83;;
22449;SDS011;11392;57.390;-2.468;2022-09-09T02:31:08;9.57;;;3.28;;
22449;SDS011;11392;57.390;-2.468;2022-09-09T02:33:38;15.32;;;4.28;;
22449;SDS011;11392;57.390;-2.468;2022-09-09T02:36:10;9.07;;;3.25;;
22449;SDS011;11392;57.390;-2.468;2022-09-09T02:38:44;13.15;;;3.42;;
22449;SDS011;11392;57.390;-2.468;2022-09-09T02:41:18;10.07;;;3.80;;
22449;SDS011;11392;57.390;-2.468;2022-09-09T02:43:49;10.23;;;2.90;;
22449;SDS011;11392;57.390;-2.468;2022-09-09T02:49:16;11.00;;;2.70;;
22449;SDS011;11392;57.390;-2.468;2022-09-09T02:54:42;9.52;;;2.60;;
22449;SDS011;11392;57.390;-2.468;2022-09-09T02:57:17;11.90;;;2.67;;
22449;SDS011;11392;57.390;-2.468;2022-09-09T02:59:49;10.20;;;3.70;;
22449;SDS011;11392;57.390;-2.468;2022-09-09T03:02:19;7.80;;;3.30;;
22449;SDS011;11392;57.390;-2.468;2022-09-09T03:04:47;13.38;;;3.42;;
22449;SDS011;11392;57.390;-2.468;2022-09-09T03:07:26;15.52;;;5.00;;
22449;SDS011;11392;57.390;-2.468;2022-09-09T03:09:54;21.95;;;5.55;;
22449;SDS011;11392;57.390;-2.468;2022-09-09T03:12:33;17.80;;;4.53;;
22449;SDS011;11392;57.390;-2.468;2022-09-09T03:15:02;20.80;;;4.57;;
22449;SDS011;11392;57.390;-2.468;2022-09-09T03:17:30;23.10;;;5.65;;
22449;SDS011;11392;57.390;-2.468;2022-09-09T03:19:57;16.60;;;4.85;;
22449;SDS011;11392;57.390;-2.468;2022-09-09T03:22:25;19.55;;;5.00;;
22449;SDS011;11392;57.390;-2.468;2022-09-09T03:24:54;14.35;;;5.20;;
22449;SDS011;11392;57.390;-2.468;2022-09-09T03:27:21;18.08;;;4.32;;
22449;SDS011;11392;57.390;-2.468;2022-09-09T03:29:49;16.02;;;4.62;;
22449;SDS011;11392;57.390;-2.468;2022-09-09T03:32:24;16.35;;;4.85;;
22449;SDS011;11392;57.390;-2.468;2022-09-09T03:34:53;16.00;;;4.80;;
22449;SDS011;11392;57.390;-2.468;2022-09-09T03:37:20;15.02;;;3.97;;
22449;SDS011;11392;57.390;-2.468;2022-09-09T03:39:48;14.77;;;5.03;;
22449;SDS011;11392;57.390;-2.468;2022-09-09T03:42:21;14.18;;;4.72;;
22449;SDS011;11392;57.390;-2.468;2022-09-09T03:44:51;16.25;;;4.80;;
22449;SDS011;11392;57.390;-2.468;2022-09-09T03:47:19;24.67;;;6.03;;
22449;SDS011;11392;57.390;-2.468;2022-09-09T03:49:48;16.75;;;4.03;;
22449;SDS011;11392;57.390;-2.468;2022-09-09T03:52:21;18.12;;;5.70;;
22449;SDS011;11392;57.390;-2.468;2022-09-09T03:54:54;23.90;;;5.85;;
22449;SDS011;11392;57.390;-2.468;2022-09-09T03:57:23;17.52;;;4.97;;
22449;SDS011;11392;57.390;-2.468;2022-09-09T03:59:53;19.00;;;5.50;;
22449;SDS011;11392;57.390;-2.468;2022-09-09T04:02:21;20.80;;;5.60;;
22449;SDS011;11392;57.390;-2.468;2022-09-09T04:04:48;23.02;;;5.97;;
22449;SDS011;11392;57.390;-2.468;2022-09-09T04:07:16;23.02;;;5.68;;
22449;SDS011;11392;57.390;-2.468;2022-09-09T04:09:45;21.60;;;5.50;;
22449;SDS011;11392;57.390;-2.468;2022-09-09T04:12:13;29.00;;;7.20;;
22449;SDS011;11392;57.390;-2.468;2022-09-09T04:14:44;20.40;;;4.97;;
22449;SDS011;11392;57.390;-2.468;2022-09-09T04:17:11;19.75;;;5.90;;
22449;SDS011;11392;57.390;-2.468;2022-09-09T04:19:39;29.05;;;6.10;;
22449;SDS011;11392;57.390;-2.468;2022-09-09T04:22:12;23.25;;;5.53;;
22449;SDS011;11392;57.390;-2.468;2022-09-09T04:24:42;20.88;;;5.60;;
22449;SDS011;11392;57.390;-2.468;2022-09-09T04:27:14;30.15;;;5.95;;
22449;SDS011;11392;57.390;-2.468;2022-09-09T04:29:41;21.65;;;5.35;;
22449;SDS011;11392;57.390;-2.468;2022-09-09T04:32:12;21.58;;;5.40;;
22449;SDS011;11392;57.390;-2.468;2022-09-09T04:34:42;22.15;;;5.68;;
22449;SDS011;11392;57.390;-2.468;2022-09-09T04:37:11;26.15;;;6.10;;
22449;SDS011;11392;57.390;-2.468;2022-09-09T04:39:39;20.23;;;5.60;;
22449;SDS011;11392;57.390;-2.468;2022-09-09T04:42:09;23.98;;;6.25;;
22449;SDS011;11392;57.390;-2.468;2022-09-09T04:44:36;20.05;;;6.62;;
22449;SDS011;11392;57.390;-2.468;2022-09-09T04:47:05;23.35;;;5.15;;
22449;SDS011;11392;57.390;-2.468;2022-09-09T04:49:32;21.62;;;6.22;;
22449;SDS011;11392;57.390;-2.468;2022-09-09T04:52:00;16.83;;;5.05;;
22449;SDS011;11392;57.390;-2.468;2022-09-09T04:54:29;24.33;;;5.40;;
22449;SDS011;11392;57.390;-2.468;2022-09-09T04:56:56;20.15;;;5.57;;
22449;SDS011;11392;57.390;-2.468;2022-09-09T04:59:24;22.20;;;4.70;;
22449;SDS011;11392;57.390;-2.468;2022-09-09T05:01:51;23.50;;;6.85;;
22449;SDS011;11392;57.390;-2.468;2022-09-09T05:04:21;19.02;;;5.05;;
22449;SDS011;11392;57.390;-2.468;2022-09-09T05:06:48;21.02;;;6.15;;
22449;SDS011;11392;57.390;-2.468;2022-09-09T05:09:16;26.62;;;4.87;;
22449;SDS011;11392;57.390;-2.468;2022-09-09T05:11:46;23.52;;;5.57;;
22449;SDS011;11392;57.390;-2.468;2022-09-09T05:14:13;19.30;;;5.37;;
22449;SDS011;11392;57.390;-2.468;2022-09-09T05:16:44;25.02;;;6.00;;
22449;SDS011;11392;57.390;-2.468;2022-09-09T05:19:13;18.12;;;5.15;;
22449;SDS011;11392;57.390;-2.468;2022-09-09T05:21:41;21.00;;;6.00;;
22449;SDS011;11392;57.390;-2.468;2022-09-09T05:24:08;22.52;;;6.82;;
22449;SDS011;11392;57.390;-2.468;2022-09-09T05:26:35;14.32;;;5.30;;
22449;SDS011;11392;57.390;-2.468;2022-09-09T05:29:03;22.17;;;5.28;;
22449;SDS011;11392;57.390;-2.468;2022-09-09T05:31:32;17.67;;;5.65;;
22449;SDS011;11392;57.390;-2.468;2022-09-09T05:33:59;19.05;;;5.25;;
22449;SDS011;11392;57.390;-2.468;2022-09-09T05:36:30;19.33;;;5.65;;
22449;SDS011;11392;57.390;-2.468;2022-09-09T05:38:57;15.38;;;4.40;;
22449;SDS011;11392;57.390;-2.468;2022-09-09T05:41:31;21.30;;;5.78;;
22449;SDS011;11392;57.390;-2.468;2022-09-09T05:43:59;18.40;;;5.47;;
22449;SDS011;11392;57.390;-2.468;2022-09-09T05:46:27;23.45;;;4.97;;
22449;SDS011;11392;57.390;-2.468;2022-09-09T05:48:55;19.30;;;4.95;;
22449;SDS011;11392;57.390;-2.468;2022-09-09T05:51:25;17.55;;;4.68;;
22449;SDS011;11392;57.390;-2.468;2022-09-09T05:53:56;17.40;;;4.80;;
22449;SDS011;11392;57.390;-2.468;2022-09-09T05:56:27;17.65;;;5.18;;
22449;SDS011;11392;57.390;-2.468;2022-09-09T05:58:56;16.77;;;4.68;;
22449;SDS011;11392;57.390;-2.468;2022-09-09T06:01:25;19.87;;;4.50;;
22449;SDS011;11392;57.390;-2.468;2022-09-09T06:03:56;19.45;;;5.45;;
22449;SDS011;11392;57.390;-2.468;2022-09-09T06:06:29;18.80;;;4.95;;
22449;SDS011;11392;57.390;-2.468;2022-09-09T06:09:04;19.98;;;5.32;;
22449;SDS011;11392;57.390;-2.468;2022-09-09T06:11:37;18.48;;;6.03;;
22449;SDS011;11392;57.390;-2.468;2022-09-09T06:14:06;16.92;;;4.90;;
22449;SDS011;11392;57.390;-2.468;2022-09-09T06:16:34;16.35;;;5.40;;
22449;SDS011;11392;57.390;-2.468;2022-09-09T06:19:05;20.20;;;6.05;;
22449;SDS011;11392;57.390;-2.468;2022-09-09T06:21:33;12.88;;;5.40;;
22449;SDS011;11392;57.390;-2.468;2022-09-09T06:24:03;17.62;;;5.40;;
22449;SDS011;11392;57.390;-2.468;2022-09-09T06:26:32;17.25;;;4.78;;
22449;SDS011;11392;57.390;-2.468;2022-09-09T06:29:02;17.92;;;5.47;;
22449;SDS011;11392;57.390;-2.468;2022-09-09T06:31:31;19.48;;;4.65;;
22449;SDS011;11392;57.390;-2.468;2022-09-09T06:34:01;19.00;;;6.15;;
22449;SDS011;11392;57.390;-2.468;2022-09-09T06:36:31;19.77;;;6.37;;
22449;SDS011;11392;57.390;-2.468;2022-09-09T06:39:00;22.37;;;5.65;;
22449;SDS011;11392;57.390;-2.468;2022-09-09T06:41:29;13.32;;;4.60;;
22449;SDS011;11392;57.390;-2.468;2022-09-09T06:43:58;12.65;;;4.35;;
22449;SDS011;11392;57.390;-2.468;2022-09-09T06:46:26;22.20;;;5.55;;
22449;SDS011;11392;57.390;-2.468;2022-09-09T06:48:57;13.70;;;4.15;;
22449;SDS011;11392;57.390;-2.468;2022-09-09T06:51:27;20.25;;;4.85;;
22449;SDS011;11392;57.390;-2.468;2022-09-09T06:53:58;15.32;;;4.35;;
22449;SDS011;11392;57.390;-2.468;2022-09-09T06:56:31;20.23;;;6.22;;
22449;SDS011;11392;57.390;-2.468;2022-09-09T06:59:01;17.87;;;4.47;;
22449;SDS011;11392;57.390;-2.468;2022-09-09T07:01:33;14.63;;;4.55;;
22449;SDS011;11392;57.390;-2.468;2022-09-09T07:04:07;19.73;;;5.05;;
22449;SDS011;11392;57.390;-2.468;2022-09-09T07:06:37;13.15;;;4.20;;
22449;SDS011;11392;57.390;-2.468;2022-09-09T07:09:09;18.27;;;4.72;;
22449;SDS011;11392;57.390;-2.468;2022-09-09T07:11:42;15.30;;;5.03;;
22449;SDS011;11392;57.390;-2.468;2022-09-09T07:14:12;15.93;;;5.35;;
22449;SDS011;11392;57.390;-2.468;2022-09-09T07:16:41;18.23;;;4.70;;
22449;SDS011;11392;57.390;-2.468;2022-09-09T07:19:10;16.30;;;3.87;;
22449;SDS011;11392;57.390;-2.468;2022-09-09T07:21:39;13.13;;;3.80;;
22449;SDS011;11392;57.390;-2.468;2022-09-09T07:24:06;22.37;;;5.28;;
22449;SDS011;11392;57.390;-2.468;2022-09-09T07:26:39;16.58;;;4.57;;
22449;SDS011;11392;57.390;-2.468;2022-09-09T07:29:07;19.65;;;4.80;;
22449;SDS011;11392;57.390;-2.468;2022-09-09T07:31:36;17.80;;;4.40;;
22449;SDS011;11392;57.390;-2.468;2022-09-09T07:34:06;12.70;;;3.95;;
22449;SDS011;11392;57.390;-2.468;2022-09-09T07:36:35;19.33;;;5.10;;
22449;SDS011;11392;57.390;-2.468;2022-09-09T07:39:05;13.00;;;4.80;;
22449;SDS011;11392;57.390;-2.468;2022-09-09T07:41:36;20.02;;;5.07;;
22449;SDS011;11392;57.390;-2.468;2022-09-09T07:44:10;16.52;;;4.43;;
22449;SDS011;11392;57.390;-2.468;2022-09-09T07:46:40;17.10;;;4.68;;
22449;SDS011;11392;57.390;-2.468;2022-09-09T07:49:08;14.20;;;3.60;;
22449;SDS011;11392;57.390;-2.468;2022-09-09T07:51:38;18.17;;;4.40;;
22449;SDS011;11392;57.390;-2.468;2022-09-09T07:54:08;13.40;;;3.75;;
22449;SDS011;11392;57.390;-2.468;2022-09-09T07:56:38;21.60;;;4.53;;
22449;SDS011;11392;57.390;-2.468;2022-09-09T07:59:07;14.00;;;4.15;;
22449;SDS011;11392;57.390;-2.468;2022-09-09T08:01:37;17.25;;;4.10;;
22449;SDS011;11392;57.390;-2.468;2022-09-09T08:04:09;14.60;;;4.43;;
22449;SDS011;11392;57.390;-2.468;2022-09-09T08:06:44;16.42;;;4.22;;
22449;SDS011;11392;57.390;-2.468;2022-09-09T08:09:16;15.50;;;4.20;;
22449;SDS011;11392;57.390;-2.468;2022-09-09T08:11:44;15.90;;;4.65;;
22449;SDS011;11392;57.390;-2.468;2022-09-09T08:14:11;13.38;;;3.10;;
22449;SDS011;11392;57.390;-2.468;2022-09-09T08:16:41;14.00;;;4.32;;
22449;SDS011;11392;57.390;-2.468;2022-09-09T08:19:10;11.35;;;3.12;;
22449;SDS011;11392;57.390;-2.468;2022-09-09T08:21:39;15.32;;;4.03;;
22449;SDS011;11392;57.390;-2.468;2022-09-09T08:24:07;13.95;;;4.12;;
22449;SDS011;11392;57.390;-2.468;2022-09-09T08:26:37;16.90;;;4.37;;
22449;SDS011;11392;57.390;-2.468;2022-09-09T08:29:08;9.93;;;3.65;;
22449;SDS011;11392;57.390;-2.468;2022-09-09T08:31:39;12.85;;;3.55;;
22449;SDS011;11392;57.390;-2.468;2022-09-09T08:34:08;13.10;;;3.70;;
22449;SDS011;11392;57.390;-2.468;2022-09-09T08:36:38;9.57;;;2.85;;
22449;SDS011;11392;57.390;-2.468;2022-09-09T08:39:10;12.68;;;3.42;;
22449;SDS011;11392;57.390;-2.468;2022-09-09T08:52:43;10.85;;;3.80;;
22449;SDS011;11392;57.390;-2.468;2022-09-09T08:58:17;10.90;;;2.97;;
22449;SDS011;11392;57.390;-2.468;2022-09-09T09:01:17;14.63;;;3.62;;
22449;SDS011;11392;57.390;-2.468;2022-09-09T09:13:15;14.68;;;3.85;;
22449;SDS011;11392;57.390;-2.468;2022-09-09T09:15:52;15.10;;;4.03;;
22449;SDS011;11392;57.390;-2.468;2022-09-09T09:18:24;11.50;;;3.37;;
22449;SDS011;11392;57.390;-2.468;2022-09-09T09:23:48;8.88;;;2.70;;
22449;SDS011;11392;57.390;-2.468;2022-09-09T09:26:24;15.30;;;3.40;;
22449;SDS011;11392;57.390;-2.468;2022-09-09T09:28:57;12.82;;;3.62;;
22449;SDS011;11392;57.390;-2.468;2022-09-09T09:31:27;9.65;;;3.10;;
22449;SDS011;11392;57.390;-2.468;2022-09-09T09:33:55;13.13;;;3.17;;
22449;SDS011;11392;57.390;-2.468;2022-09-09T09:36:33;12.32;;;3.12;;
22449;SDS011;11392;57.390;-2.468;2022-09-09T09:39:06;11.07;;;2.72;;
22449;SDS011;11392;57.390;-2.468;2022-09-09T09:41:55;10.65;;;3.70;;
22449;SDS011;11392;57.390;-2.468;2022-09-09T09:44:27;12.95;;;3.35;;
22449;SDS011;11392;57.390;-2.468;2022-09-09T09:52:42;5.72;;;2.72;;
22449;SDS011;11392;57.390;-2.468;2022-09-09T09:55:23;5.97;;;2.15;;
22449;SDS011;11392;57.390;-2.468;2022-09-09T09:57:52;10.10;;;2.25;;
22449;SDS011;11392;57.390;-2.468;2022-09-09T10:00:20;10.35;;;2.30;;
22449;SDS011;11392;57.390;-2.468;2022-09-09T10:02:49;7.15;;;2.50;;
22449;SDS011;11392;57.390;-2.468;2022-09-09T10:05:20;10.45;;;3.22;;
22449;SDS011;11392;57.390;-2.468;2022-09-09T10:21:42;7.40;;;2.15;;
22449;SDS011;11392;57.390;-2.468;2022-09-09T10:32:17;8.82;;;2.85;;
22449;SDS011;11392;57.390;-2.468;2022-09-09T10:34:59;6.45;;;2.40;;
22449;SDS011;11392;57.390;-2.468;2022-09-09T10:43:01;6.55;;;1.87;;
22449;SDS011;11392;57.390;-2.468;2022-09-09T10:48:31;5.87;;;1.92;;
22449;SDS011;11392;57.390;-2.468;2022-09-09T10:51:05;7.53;;;1.85;;
22449;SDS011;11392;57.390;-2.468;2022-09-09T10:54:07;6.30;;;1.70;;
22449;SDS011;11392;57.390;-2.468;2022-09-09T10:56:30;4.37;;;1.65;;
22449;SDS011;11392;57.390;-2.468;2022-09-09T10:58:59;5.65;;;1.42;;
22449;SDS011;11392;57.390;-2.468;2022-09-09T11:01:40;10.00;;;1.98;;
22449;SDS011;11392;57.390;-2.468;2022-09-09T11:04:19;5.40;;;1.92;;
22449;SDS011;11392;57.390;-2.468;2022-09-09T11:06:54;3.92;;;1.60;;
22449;SDS011;11392;57.390;-2.468;2022-09-09T11:09:24;7.22;;;2.08;;
22449;SDS011;11392;57.390;-2.468;2022-09-09T11:11:55;8.57;;;2.25;;
22449;SDS011;11392;57.390;-2.468;2022-09-09T11:17:06;4.25;;;1.42;;
22449;SDS011;11392;57.390;-2.468;2022-09-09T11:19:39;5.28;;;1.70;;
22449;SDS011;11392;57.390;-2.468;2022-09-09T11:27:59;6.75;;;1.75;;
22449;SDS011;11392;57.390;-2.468;2022-09-09T11:30:44;7.10;;;2.30;;
22449;SDS011;11392;57.390;-2.468;2022-09-09T11:33:34;5.50;;;1.62;;
22449;SDS011;11392;57.390;-2.468;2022-09-09T11:41:50;7.03;;;2.05;;
22449;SDS011;11392;57.390;-2.468;2022-09-09T11:44:19;3.62;;;1.48;;
22449;SDS011;11392;57.390;-2.468;2022-09-09T11:46:55;8.07;;;1.75;;
22449;SDS011;11392;57.390;-2.468;2022-09-09T11:49:26;3.22;;;1.40;;
22449;SDS011;11392;57.390;-2.468;2022-09-09T11:51:57;3.22;;;1.30;;
22449;SDS011;11392;57.390;-2.468;2022-09-09T11:54:28;5.22;;;1.45;;
22449;SDS011;11392;57.390;-2.468;2022-09-09T11:56:58;3.83;;;1.17;;
22449;SDS011;11392;57.390;-2.468;2022-09-09T11:59:27;5.18;;;1.52;;
22449;SDS011;11392;57.390;-2.468;2022-09-09T12:07:02;2.72;;;1.70;;
22449;SDS011;11392;57.390;-2.468;2022-09-09T12:12:30;3.87;;;1.40;;
22449;SDS011;11392;57.390;-2.468;2022-09-09T12:17:45;4.03;;;1.85;;
22449;SDS011;11392;57.390;-2.468;2022-09-09T12:27:57;4.25;;;1.30;;
22449;SDS011;11392;57.390;-2.468;2022-09-09T12:30:34;1.58;;;0.70;;
22449;SDS011;11392;57.390;-2.468;2022-09-09T12:33:18;3.55;;;1.17;;
22449;SDS011;11392;57.390;-2.468;2022-09-09T12:35:47;2.97;;;1.30;;
22449;SDS011;11392;57.390;-2.468;2022-09-09T12:40:58;2.67;;;1.23;;
22449;SDS011;11392;57.390;-2.468;2022-09-09T12:43:27;2.78;;;1.05;;
22449;SDS011;11392;57.390;-2.468;2022-09-09T12:45:56;4.15;;;1.48;;
22449;SDS011;11392;57.390;-2.468;2022-09-09T12:48:31;3.17;;;1.00;;
22449;SDS011;11392;57.390;-2.468;2022-09-09T12:51:03;4.35;;;1.20;;
22449;SDS011;11392;57.390;-2.468;2022-09-09T12:53:35;3.65;;;0.95;;
22449;SDS011;11392;57.390;-2.468;2022-09-09T12:56:07;5.25;;;1.48;;
22449;SDS011;11392;57.390;-2.468;2022-09-09T12:58:45;3.00;;;1.05;;
22449;SDS011;11392;57.390;-2.468;2022-09-09T13:01:22;2.08;;;1.30;;
22449;SDS011;11392;57.390;-2.468;2022-09-09T13:03:50;2.72;;;1.10;;
22449;SDS011;11392;57.390;-2.468;2022-09-09T13:06:19;3.20;;;1.50;;
22449;SDS011;11392;57.390;-2.468;2022-09-09T13:08:55;4.80;;;1.30;;
22449;SDS011;11392;57.390;-2.468;2022-09-09T13:11:29;3.30;;;0.85;;
22449;SDS011;11392;57.390;-2.468;2022-09-09T13:14:02;14.82;;;5.05;;
22449;SDS011;11392;57.390;-2.468;2022-09-09T13:16:31;5.60;;;1.90;;
22449;SDS011;11392;57.390;-2.468;2022-09-09T13:19:08;3.50;;;1.45;;
22449;SDS011;11392;57.390;-2.468;2022-09-09T13:21:42;4.12;;;1.02;;
22449;SDS011;11392;57.390;-2.468;2022-09-09T13:26:59;2.67;;;1.05;;
22449;SDS011;11392;57.390;-2.468;2022-09-09T13:29:28;3.80;;;1.00;;
22449;SDS011;11392;57.390;-2.468;2022-09-09T13:32:03;2.75;;;1.10;;
22449;SDS011;11392;57.390;-2.468;2022-09-09T13:34:33;3.25;;;0.80;;
22449;SDS011;11392;57.390;-2.468;2022-09-09T13:37:03;2.45;;;1.33;;
22449;SDS011;11392;57.390;-2.468;2022-09-09T13:39:34;4.28;;;1.77;;
22449;SDS011;11392;57.390;-2.468;2022-09-09T13:42:03;7.62;;;1.37;;
22449;SDS011;11392;57.390;-2.468;2022-09-09T13:44:35;2.40;;;1.10;;
22449;SDS011;11392;57.390;-2.468;2022-09-09T13:47:06;2.50;;;1.30;;
22449;SDS011;11392;57.390;-2.468;2022-09-09T13:49:46;5.25;;;1.10;;
22449;SDS011;11392;57.390;-2.468;2022-09-09T13:52:15;2.03;;;0.70;;
22449;SDS011;11392;57.390;-2.468;2022-09-09T13:54:48;2.00;;;1.00;;
22449;SDS011;11392;57.390;-2.468;2022-09-09T13:57:18;2.50;;;1.20;;
22449;SDS011;11392;57.390;-2.468;2022-09-09T13:59:48;5.43;;;2.05;;
22449;SDS011;11392;57.390;-2.468;2022-09-09T14:02:32;2.00;;;1.10;;
22449;SDS011;11392;57.390;-2.468;2022-09-09T14:05:00;4.15;;;1.60;;
22449;SDS011;11392;57.390;-2.468;2022-09-09T14:07:27;4.03;;;1.27;;
22449;SDS011;11392;57.390;-2.468;2022-09-09T14:09:55;6.05;;;1.83;;
22449;SDS011;11392;57.390;-2.468;2022-09-09T14:12:23;2.05;;;1.10;;
22449;SDS011;11392;57.390;-2.468;2022-09-09T14:14:50;3.92;;;1.17;;
22449;SDS011;11392;57.390;-2.468;2022-09-09T14:17:18;1.62;;;0.90;;
22449;SDS011;11392;57.390;-2.468;2022-09-09T14:19:45;2.37;;;0.82;;
22449;SDS011;11392;57.390;-2.468;2022-09-09T14:22:13;3.10;;;1.20;;
22449;SDS011;11392;57.390;-2.468;2022-09-09T14:24:40;4.22;;;1.10;;
22449;SDS011;11392;57.390;-2.468;2022-09-09T14:27:08;2.90;;;0.90;;
22449;SDS011;11392;57.390;-2.468;2022-09-09T14:29:35;2.20;;;0.80;;
22449;SDS011;11392;57.390;-2.468;2022-09-09T14:32:03;2.67;;;0.98;;
22449;SDS011;11392;57.390;-2.468;2022-09-09T14:34:35;3.08;;;1.12;;
22449;SDS011;11392;57.390;-2.468;2022-09-09T14:37:03;4.78;;;0.95;;
22449;SDS011;11392;57.390;-2.468;2022-09-09T14:39:31;3.67;;;1.25;;
22449;SDS011;11392;57.390;-2.468;2022-09-09T14:41:58;2.45;;;1.00;;
22449;SDS011;11392;57.390;-2.468;2022-09-09T14:44:26;2.90;;;0.82;;
22449;SDS011;11392;57.390;-2.468;2022-09-09T14:46:53;1.77;;;0.95;;
22449;SDS011;11392;57.390;-2.468;2022-09-09T14:49:20;1.33;;;0.73;;
22449;SDS011;11392;57.390;-2.468;2022-09-09T14:51:48;1.67;;;0.80;;
22449;SDS011;11392;57.390;-2.468;2022-09-09T14:54:15;1.87;;;0.75;;
22449;SDS011;11392;57.390;-2.468;2022-09-09T14:56:43;4.70;;;1.45;;
22449;SDS011;11392;57.390;-2.468;2022-09-09T14:59:10;1.40;;;0.85;;
22449;SDS011;11392;57.390;-2.468;2022-09-09T15:01:37;4.22;;;0.90;;
22449;SDS011;11392;57.390;-2.468;2022-09-09T15:04:05;1.70;;;0.80;;
22449;SDS011;11392;57.390;-2.468;2022-09-09T15:06:34;1.15;;;0.70;;
22449;SDS011;11392;57.390;-2.468;2022-09-09T15:09:03;0.82;;;0.73;;
22449;SDS011;11392;57.390;-2.468;2022-09-09T15:11:33;4.72;;;1.23;;
22449;SDS011;11392;57.390;-2.468;2022-09-09T15:14:05;3.90;;;0.93;;
22449;SDS011;11392;57.390;-2.468;2022-09-09T15:16:34;3.45;;;1.00;;
22449;SDS011;11392;57.390;-2.468;2022-09-09T15:19:02;1.25;;;0.60;;
22449;SDS011;11392;57.390;-2.468;2022-09-09T15:21:31;3.60;;;1.00;;
22449;SDS011;11392;57.390;-2.468;2022-09-09T15:24:00;2.45;;;0.75;;
22449;SDS011;11392;57.390;-2.468;2022-09-09T15:26:28;4.22;;;1.08;;
22449;SDS011;11392;57.390;-2.468;2022-09-09T15:28:56;4.37;;;1.02;;
22449;SDS011;11392;57.390;-2.468;2022-09-09T15:31:26;6.15;;;1.20;;
22449;SDS011;11392;57.390;-2.468;2022-09-09T15:33:56;2.85;;;1.33;;
22449;SDS011;11392;57.390;-2.468;2022-09-09T15:36:29;1.10;;;0.60;;
22449;SDS011;11392;57.390;-2.468;2022-09-09T15:38:59;4.18;;;1.00;;
22449;SDS011;11392;57.390;-2.468;2022-09-09T15:41:28;1.70;;;0.80;;
22449;SDS011;11392;57.390;-2.468;2022-09-09T15:43:59;2.47;;;1.00;;
22449;SDS011;11392;57.390;-2.468;2022-09-09T15:46:28;2.15;;;1.05;;
22449;SDS011;11392;57.390;-2.468;2022-09-09T15:51:53;3.67;;;0.95;;
22449;SDS011;11392;57.390;-2.468;2022-09-09T15:54:24;2.35;;;0.73;;
22449;SDS011;11392;57.390;-2.468;2022-09-09T15:56:54;1.62;;;0.82;;
22449;SDS011;11392;57.390;-2.468;2022-09-09T15:59:24;1.05;;;0.80;;
22449;SDS011;11392;57.390;-2.468;2022-09-09T16:01:54;3.08;;;0.98;;
22449;SDS011;11392;57.390;-2.468;2022-09-09T16:07:45;2.22;;;1.17;;
22449;SDS011;11392;57.390;-2.468;2022-09-09T16:10:14;3.47;;;1.10;;
22449;SDS011;11392;57.390;-2.468;2022-09-09T16:12:41;1.65;;;0.85;;
22449;SDS011;11392;57.390;-2.468;2022-09-09T16:15:08;3.25;;;1.12;;
22449;SDS011;11392;57.390;-2.468;2022-09-09T16:17:35;2.95;;;0.90;;
22449;SDS011;11392;57.390;-2.468;2022-09-09T16:20:04;4.28;;;1.15;;
22449;SDS011;11392;57.390;-2.468;2022-09-09T16:22:34;3.75;;;1.02;;
22449;SDS011;11392;57.390;-2.468;2022-09-09T16:25:01;3.70;;;1.08;;
22449;SDS011;11392;57.390;-2.468;2022-09-09T16:27:28;3.65;;;1.10;;
22449;SDS011;11392;57.390;-2.468;2022-09-09T16:29:55;1.77;;;0.85;;
22449;SDS011;11392;57.390;-2.468;2022-09-09T16:32:22;1.85;;;0.82;;
22449;SDS011;11392;57.390;-2.468;2022-09-09T16:34:49;8.13;;;2.28;;
22449;SDS011;11392;57.390;-2.468;2022-09-09T16:37:16;1.23;;;0.77;;
22449;SDS011;11392;57.390;-2.468;2022-09-09T16:39:44;2.28;;;1.10;;
22449;SDS011;11392;57.390;-2.468;2022-09-09T16:42:11;3.33;;;0.90;;
22449;SDS011;11392;57.390;-2.468;2022-09-09T16:44:38;1.05;;;0.65;;
22449;SDS011;11392;57.390;-2.468;2022-09-09T16:47:04;3.62;;;1.00;;
22449;SDS011;11392;57.390;-2.468;2022-09-09T16:49:31;2.67;;;0.88;;
22449;SDS011;11392;57.390;-2.468;2022-09-09T16:51:58;1.50;;;0.90;;
22449;SDS011;11392;57.390;-2.468;2022-09-09T16:54:26;3.65;;;1.42;;
22449;SDS011;11392;57.390;-2.468;2022-09-09T16:56:53;1.27;;;0.70;;
22449;SDS011;11392;57.390;-2.468;2022-09-09T16:59:20;1.83;;;0.90;;
22449;SDS011;11392;57.390;-2.468;2022-09-09T17:01:50;1.48;;;0.77;;
22449;SDS011;11392;57.390;-2.468;2022-09-09T17:04:18;1.92;;;0.80;;
22449;SDS011;11392;57.390;-2.468;2022-09-09T17:06:48;1.33;;;1.20;;
22449;SDS011;11392;57.390;-2.468;2022-09-09T17:09:16;1.83;;;1.00;;
22449;SDS011;11392;57.390;-2.468;2022-09-09T17:11:47;2.05;;;1.08;;
22449;SDS011;11392;57.390;-2.468;2022-09-09T17:14:19;2.85;;;1.17;;
22449;SDS011;11392;57.390;-2.468;2022-09-09T17:16:47;3.33;;;1.27;;
22449;SDS011;11392;57.390;-2.468;2022-09-09T17:19:14;2.53;;;1.02;;
22449;SDS011;11392;57.390;-2.468;2022-09-09T17:21:41;2.65;;;0.93;;
22449;SDS011;11392;57.390;-2.468;2022-09-09T17:24:28;1.52;;;0.90;;
22449;SDS011;11392;57.390;-2.468;2022-09-09T17:26:56;1.98;;;0.88;;
22449;SDS011;11392;57.390;-2.468;2022-09-09T17:29:23;4.30;;;1.00;;
22449;SDS011;11392;57.390;-2.468;2022-09-09T17:31:51;2.40;;;1.00;;